createdAt,value
2023-04-26T00:01:36.651Z,9.70
2023-04-26T00:04:22.113Z,9.60
2023-04-26T00:07:08.483Z,9.60
2023-04-26T00:09:54.207Z,9.50
2023-04-26T00:12:41.295Z,9.50
2023-04-26T00:15:26.786Z,9.60
2023-04-26T00:18:12.725Z,9.60
2023-04-26T00:20:58.798Z,9.50
2023-04-26T00:23:44.446Z,9.50
2023-04-26T00:26:30.168Z,9.60
2023-04-26T00:29:15.808Z,9.50
2023-04-26T00:32:01.636Z,9.40
2023-04-26T00:34:47.326Z,9.40
2023-04-26T00:37:33.020Z,9.50
2023-04-26T00:40:20.675Z,9.30
2023-04-26T00:43:06.268Z,9.40
2023-04-26T00:45:52.267Z,9.20
2023-04-26T00:48:37.567Z,9.30
2023-04-26T00:51:23.352Z,9.10
2023-04-26T00:54:10.099Z,9.10
2023-04-26T00:56:55.552Z,9.20
2023-04-26T00:59:41.545Z,9.00
2023-04-26T01:02:27.636Z,9.30
2023-04-26T01:05:13.410Z,9.10
2023-04-26T01:07:59.968Z,9.00
2023-04-26T01:10:45.636Z,9.00
2023-04-26T01:13:32.484Z,9.10
2023-04-26T01:16:19.239Z,8.90
2023-04-26T01:19:12.598Z,9.00
2023-04-26T01:21:58.262Z,8.90
2023-04-26T01:24:44.784Z,8.90
2023-04-26T01:27:30.149Z,8.90
2023-04-26T01:30:15.714Z,8.90
2023-04-26T01:33:01.436Z,8.80
2023-04-26T01:35:47.200Z,8.70
2023-04-26T01:38:32.827Z,8.70
2023-04-26T01:41:18.556Z,8.60
2023-04-26T01:44:04.370Z,8.60
2023-04-26T01:46:49.704Z,8.70
2023-04-26T01:49:35.297Z,8.60
2023-04-26T01:52:21.494Z,8.50
2023-04-26T01:55:07.506Z,8.50
2023-04-26T01:57:52.927Z,8.70
2023-04-26T02:00:38.560Z,8.60
2023-04-26T02:03:24.252Z,8.60
2023-04-26T02:06:09.765Z,8.40
2023-04-26T02:08:57.003Z,8.30
2023-04-26T02:11:42.495Z,8.40
2023-04-26T02:14:28.142Z,8.50
2023-04-26T02:17:14.766Z,8.40
2023-04-26T02:20:00.377Z,8.50
2023-04-26T02:22:46.101Z,8.40
2023-04-26T02:25:34.141Z,8.60
2023-04-26T02:28:19.766Z,8.50
2023-04-26T02:31:05.811Z,8.50
2023-04-26T02:33:51.201Z,8.30
2023-04-26T02:36:37.017Z,8.10
2023-04-26T02:39:22.489Z,8.10
2023-04-26T02:42:11.070Z,8.20
2023-04-26T02:44:56.843Z,8.30
2023-04-26T02:47:43.521Z,8.20
2023-04-26T02:50:29.202Z,8.40
2023-04-26T02:53:15.970Z,8.10
2023-04-26T02:56:01.696Z,8.20
2023-04-26T02:58:47.952Z,8.30
2023-04-26T03:01:34.432Z,8.90
2023-04-26T03:04:20.723Z,9.90
2023-04-26T03:07:10.021Z,10.70
2023-04-26T03:09:55.692Z,11.30
2023-04-26T03:12:41.598Z,11.80
2023-04-26T03:15:26.845Z,12.20
2023-04-26T03:18:12.485Z,12.40
2023-04-26T03:20:58.270Z,12.70
2023-04-26T03:23:43.928Z,12.80
2023-04-26T03:26:29.445Z,13.00
2023-04-26T03:29:15.225Z,13.00
2023-04-26T03:32:00.794Z,13.10
2023-04-26T03:34:48.799Z,13.30
2023-04-26T03:37:34.270Z,13.40
2023-04-26T03:40:24.006Z,13.50
2023-04-26T03:43:09.902Z,13.50
2023-04-26T03:45:57.082Z,13.60
2023-04-26T03:48:42.648Z,13.60
2023-04-26T03:51:28.375Z,13.60
2023-04-26T03:54:14.641Z,13.60
2023-04-26T03:57:00.370Z,13.70
2023-04-26T03:59:46.057Z,13.70
2023-04-26T04:02:31.543Z,13.80
2023-04-26T04:05:17.424Z,13.80
2023-04-26T04:08:03.174Z,13.90
2023-04-26T04:10:49.698Z,13.90
2023-04-26T04:13:35.059Z,13.90
2023-04-26T04:16:20.841Z,14.00
2023-04-26T04:19:06.347Z,13.90
2023-04-26T04:21:51.967Z,13.90
2023-04-26T04:24:38.092Z,14.00
2023-04-26T04:27:23.798Z,14.00
2023-04-26T04:30:09.540Z,14.00
2023-04-26T04:32:55.363Z,14.00
2023-04-26T04:35:41.269Z,14.00
2023-04-26T04:38:27.048Z,14.10
2023-04-26T04:41:12.851Z,14.10
2023-04-26T04:44:00.455Z,14.10
2023-04-26T04:46:47.087Z,14.10
2023-04-26T04:49:33.599Z,14.10
2023-04-26T04:52:21.769Z,14.10
2023-04-26T04:55:07.431Z,14.10
2023-04-26T04:57:54.901Z,14.10
2023-04-26T05:00:40.970Z,14.20
2023-04-26T05:03:38.414Z,14.20
2023-04-26T05:06:24.524Z,14.10
2023-04-26T05:09:11.431Z,14.20
2023-04-26T05:11:57.042Z,14.20
2023-04-26T05:14:42.811Z,14.20
2023-04-26T05:17:28.491Z,14.20
2023-04-26T05:20:15.279Z,14.30
2023-04-26T05:23:00.829Z,14.30
2023-04-26T05:25:46.639Z,14.30
2023-04-26T05:28:52.494Z,14.30
2023-04-26T05:31:46.175Z,14.30
2023-04-26T05:34:51.102Z,14.20
2023-04-26T05:37:36.725Z,14.20
2023-04-26T05:40:22.310Z,14.20
2023-04-26T05:43:08.352Z,14.30
2023-04-26T05:45:57.010Z,14.30
2023-04-26T05:48:44.242Z,14.30
2023-04-26T05:51:31.114Z,14.30
2023-04-26T05:54:17.249Z,14.30
2023-04-26T05:57:03.619Z,14.30
2023-04-26T05:59:49.589Z,14.40
2023-04-26T06:02:36.628Z,14.30
2023-04-26T06:05:22.499Z,11.30
2023-04-26T06:08:08.223Z,14.40
2023-04-26T06:10:53.720Z,14.40
2023-04-26T06:13:39.559Z,14.50
2023-04-26T06:16:27.096Z,14.50
2023-04-26T06:19:12.843Z,14.50
2023-04-26T06:21:58.593Z,14.50
2023-04-26T06:24:44.159Z,14.50
2023-04-26T06:27:30.001Z,14.50
2023-04-26T06:30:16.045Z,16.80
2023-04-26T06:33:05.877Z,14.60
2023-04-26T06:35:52.742Z,14.60
2023-04-26T06:38:38.281Z,14.60
2023-04-26T06:41:23.863Z,14.60
2023-04-26T06:44:09.752Z,14.60
2023-04-26T06:47:00.751Z,14.70
2023-04-26T06:49:46.357Z,14.60
2023-04-26T06:52:31.692Z,14.70
2023-04-26T06:55:17.383Z,14.70
2023-04-26T06:58:02.820Z,14.70
2023-04-26T07:00:48.538Z,14.80
2023-04-26T07:03:34.423Z,14.70
2023-04-26T07:06:20.493Z,14.70
2023-04-26T07:09:06.065Z,14.70
2023-04-26T07:11:51.670Z,14.70
2023-04-26T07:14:40.632Z,14.80
2023-04-26T07:17:26.041Z,14.80
2023-04-26T07:20:11.884Z,14.80
2023-04-26T07:22:57.297Z,14.90
2023-04-26T07:25:42.954Z,14.80
2023-04-26T07:28:28.661Z,14.90
2023-04-26T07:31:14.304Z,14.90
2023-04-26T07:33:59.976Z,14.80
2023-04-26T07:36:45.571Z,14.90
2023-04-26T07:39:31.008Z,14.90
2023-04-26T07:42:16.636Z,14.90
2023-04-26T07:45:01.910Z,14.90
2023-04-26T07:47:47.614Z,14.90
2023-04-26T07:50:33.343Z,15.00
2023-04-26T07:53:18.811Z,15.00
2023-04-26T07:56:05.387Z,15.00
2023-04-26T07:58:51.677Z,15.00
2023-04-26T08:01:37.231Z,15.00
2023-04-26T08:04:30.893Z,15.10
2023-04-26T08:07:16.919Z,15.10
2023-04-26T08:10:02.330Z,15.10
2023-04-26T08:12:47.970Z,15.10
2023-04-26T08:15:33.822Z,15.10
2023-04-26T08:18:19.168Z,15.20
2023-04-26T08:21:04.842Z,15.20
2023-04-26T08:23:50.884Z,15.20
2023-04-26T08:26:36.683Z,15.20
2023-04-26T08:29:23.211Z,15.20
2023-04-26T08:32:08.602Z,15.20
2023-04-26T08:34:54.338Z,15.20
2023-04-26T08:37:39.980Z,15.30
2023-04-26T08:40:25.744Z,15.30
2023-04-26T08:43:11.796Z,15.20
2023-04-26T08:45:58.793Z,15.20
2023-04-26T08:48:44.181Z,15.20
2023-04-26T08:51:30.103Z,15.30
2023-04-26T08:54:18.245Z,15.30
2023-04-26T08:57:04.143Z,15.30
2023-04-26T08:59:50.022Z,15.40
2023-04-26T09:02:35.685Z,15.40
2023-04-26T09:05:24.306Z,15.40
2023-04-26T09:08:12.022Z,15.40
2023-04-26T09:10:57.673Z,15.40
2023-04-26T09:13:43.052Z,15.50
2023-04-26T09:16:36.299Z,15.50
2023-04-26T09:19:38.796Z,15.50
2023-04-26T09:22:31.401Z,15.50
2023-04-26T09:25:17.908Z,15.60
2023-04-26T09:28:04.027Z,15.60
2023-04-26T09:30:49.853Z,17.00
2023-04-26T09:33:36.125Z,15.50
2023-04-26T09:36:22.509Z,15.60
2023-04-26T09:39:07.968Z,15.60
2023-04-26T09:41:53.639Z,15.60
2023-04-26T09:44:39.677Z,15.50
2023-04-26T09:47:25.024Z,15.50
2023-04-26T09:50:10.708Z,15.50
2023-04-26T09:52:56.834Z,15.50
2023-04-26T09:55:42.281Z,15.50
2023-04-26T09:58:27.578Z,15.50
2023-04-26T10:01:18.034Z,15.40
2023-04-26T10:04:04.771Z,15.50
2023-04-26T10:06:50.367Z,15.50
2023-04-26T10:09:36.083Z,15.50
2023-04-26T10:12:21.655Z,15.50
2023-04-26T10:15:08.763Z,15.40
2023-04-26T10:17:54.511Z,15.50
2023-04-26T10:20:42.288Z,15.50
2023-04-26T10:23:27.880Z,15.50
2023-04-26T10:26:42.410Z,15.50
2023-04-26T10:29:47.698Z,15.50
2023-04-26T10:32:33.237Z,15.50
2023-04-26T10:35:20.056Z,15.50
2023-04-26T10:38:05.753Z,15.60
2023-04-26T10:40:53.436Z,15.60
2023-04-26T10:43:42.855Z,15.70
2023-04-26T10:46:36.787Z,15.70
2023-04-26T10:49:26.266Z,15.80
2023-04-26T10:52:13.092Z,15.80
2023-04-26T10:54:59.360Z,15.90
2023-04-26T10:57:49.338Z,15.90
2023-04-26T11:00:34.739Z,16.00
2023-04-26T11:03:23.033Z,17.50
2023-04-26T11:06:15.386Z,16.10
2023-04-26T11:09:00.838Z,16.10
2023-04-26T11:11:53.576Z,16.10
2023-04-26T11:14:39.047Z,16.10
2023-04-26T11:17:24.517Z,16.10
2023-04-26T11:20:11.168Z,16.10
2023-04-26T11:22:56.818Z,16.00
2023-04-26T11:25:42.401Z,16.00
2023-04-26T11:28:27.824Z,16.00
2023-04-26T11:31:14.526Z,16.00
2023-04-26T11:34:06.149Z,16.10
2023-04-26T11:36:52.467Z,16.10
2023-04-26T11:39:37.859Z,16.10
2023-04-26T11:42:26.776Z,16.00
2023-04-26T11:45:12.356Z,16.10
2023-04-26T11:47:58.092Z,16.10
2023-04-26T11:50:44.024Z,16.10
2023-04-26T11:53:39.534Z,16.10
2023-04-26T11:56:25.261Z,16.20
2023-04-26T11:59:10.962Z,16.10
2023-04-26T12:01:57.185Z,16.20
2023-04-26T12:04:44.255Z,16.20
2023-04-26T12:07:36.045Z,16.20
2023-04-26T12:10:23.824Z,16.20
2023-04-26T12:13:09.485Z,16.20
2023-04-26T12:15:55.204Z,16.30
2023-04-26T12:18:41.382Z,16.30
2023-04-26T12:21:30.331Z,16.40
2023-04-26T12:24:26.414Z,16.40
2023-04-26T12:27:20.021Z,16.40
2023-04-26T12:30:07.309Z,16.50
2023-04-26T12:32:55.720Z,16.50
2023-04-26T12:35:43.215Z,16.50
2023-04-26T12:38:28.824Z,16.50
2023-04-26T12:41:14.496Z,16.60
2023-04-26T12:44:00.744Z,16.60
2023-04-26T12:46:46.439Z,16.50
2023-04-26T12:49:32.229Z,16.50
2023-04-26T12:52:17.871Z,16.50
2023-04-26T12:55:05.092Z,16.50
2023-04-26T12:57:50.530Z,16.50
2023-04-26T13:00:36.214Z,16.50
2023-04-26T13:03:21.850Z,16.40
2023-04-26T13:06:07.532Z,16.40
2023-04-26T13:08:52.841Z,16.40
2023-04-26T13:11:38.610Z,16.40
2023-04-26T13:14:24.245Z,16.40
2023-04-26T13:17:11.025Z,16.40
2023-04-26T13:19:56.728Z,16.40
2023-04-26T13:22:43.319Z,16.40
2023-04-26T13:25:29.203Z,16.40
2023-04-26T13:28:15.262Z,16.40
2023-04-26T13:31:01.576Z,16.50
2023-04-26T13:33:49.190Z,16.50
2023-04-26T13:36:35.022Z,16.60
2023-04-26T13:39:20.551Z,16.70
2023-04-26T13:42:06.213Z,16.90
2023-04-26T13:44:51.786Z,17.10
2023-04-26T13:47:37.320Z,17.30
2023-04-26T13:50:22.881Z,17.60
2023-04-26T13:53:08.627Z,17.70
2023-04-26T13:55:54.043Z,17.90
2023-04-26T13:58:42.138Z,18.00
2023-04-26T14:01:28.022Z,17.90
2023-04-26T14:04:13.655Z,17.90
2023-04-26T14:06:59.437Z,17.90
2023-04-26T14:09:45.398Z,17.90
2023-04-26T14:12:31.070Z,17.80
2023-04-26T14:15:16.807Z,17.80
2023-04-26T14:18:02.641Z,17.80
2023-04-26T14:20:48.768Z,17.80
2023-04-26T14:23:34.335Z,18.00
2023-04-26T14:26:20.495Z,18.20
2023-04-26T14:29:06.120Z,18.30
2023-04-26T14:31:51.912Z,18.50
2023-04-26T14:34:42.016Z,18.50
2023-04-26T14:37:27.658Z,18.50
2023-04-26T14:40:13.842Z,18.40
2023-04-26T14:42:59.525Z,18.40
2023-04-26T14:45:45.313Z,18.40
2023-04-26T14:48:30.985Z,18.30
2023-04-26T14:51:16.743Z,18.30
2023-04-26T14:54:02.186Z,18.10
2023-04-26T14:56:48.565Z,18.10
2023-04-26T14:59:34.342Z,18.00
2023-04-26T15:02:19.976Z,17.90
2023-04-26T15:05:06.170Z,17.80
2023-04-26T15:07:53.310Z,17.70
2023-04-26T15:10:38.979Z,17.70
2023-04-26T15:13:24.383Z,17.60
2023-04-26T15:16:10.054Z,17.60
2023-04-26T15:18:55.538Z,17.60
2023-04-26T15:21:41.227Z,17.50
2023-04-26T15:24:27.173Z,17.50
2023-04-26T15:27:12.764Z,17.50
2023-04-26T15:29:58.732Z,17.50
2023-04-26T15:32:47.297Z,17.50
2023-04-26T15:35:35.453Z,17.50
2023-04-26T15:38:21.080Z,17.50
2023-04-26T15:41:06.640Z,17.60
2023-04-26T15:43:59.521Z,17.60
2023-04-26T15:46:45.008Z,17.60
2023-04-26T15:49:31.044Z,17.70
2023-04-26T15:52:17.124Z,17.70
2023-04-26T15:55:03.184Z,18.00
2023-04-26T15:57:48.554Z,18.30
2023-04-26T16:00:34.802Z,18.80
2023-04-26T16:03:20.690Z,19.20
2023-04-26T16:06:07.001Z,19.60
2023-04-26T16:08:52.521Z,20.00
2023-04-26T16:11:38.257Z,20.30
2023-04-26T16:14:23.839Z,20.50
2023-04-26T16:17:09.199Z,20.70
2023-04-26T16:19:54.877Z,20.80
2023-04-26T16:22:40.683Z,20.80
2023-04-26T16:25:26.091Z,20.80
2023-04-26T16:28:11.992Z,20.80
2023-04-26T16:30:57.558Z,20.60
2023-04-26T16:33:43.236Z,20.40
2023-04-26T16:36:28.870Z,20.20
2023-04-26T16:39:16.148Z,20.10
2023-04-26T16:42:02.334Z,19.90
2023-04-26T16:44:47.712Z,19.70
2023-04-26T16:47:34.133Z,19.50
2023-04-26T16:50:19.497Z,19.30
2023-04-26T16:53:05.169Z,19.30
2023-04-26T16:55:51.201Z,19.20
2023-04-26T16:58:36.906Z,19.00
2023-04-26T17:01:22.709Z,18.80
2023-04-26T17:04:09.207Z,18.70
2023-04-26T17:06:56.298Z,18.60
2023-04-26T17:09:42.301Z,18.60
2023-04-26T17:12:27.612Z,18.40
2023-04-26T17:15:13.342Z,18.40
2023-04-26T17:17:58.792Z,18.30
2023-04-26T17:20:44.430Z,18.20
2023-04-26T17:23:30.786Z,18.20
2023-04-26T17:26:16.535Z,18.20
2023-04-26T17:29:02.518Z,18.10
2023-04-26T17:31:47.906Z,18.00
2023-04-26T17:34:33.499Z,18.00
2023-04-26T17:37:19.207Z,18.00
2023-04-26T17:40:08.240Z,17.90
2023-04-26T17:42:53.771Z,17.80
2023-04-26T17:45:39.477Z,17.80
2023-04-26T17:48:25.276Z,17.70
2023-04-26T17:51:11.740Z,17.70
2023-04-26T17:53:57.139Z,17.70
2023-04-26T17:56:43.566Z,17.60
2023-04-26T17:59:29.056Z,17.60
2023-04-26T18:02:14.863Z,17.50
2023-04-26T18:05:00.866Z,17.60
2023-04-26T18:07:46.561Z,17.30
2023-04-26T18:10:32.567Z,17.50
2023-04-26T18:13:18.873Z,17.40
2023-04-26T18:16:05.019Z,17.40
2023-04-26T18:18:50.405Z,17.40
2023-04-26T18:21:36.202Z,17.40
2023-04-26T18:24:21.768Z,17.40
2023-04-26T18:27:07.397Z,17.30
2023-04-26T18:29:53.058Z,17.30
2023-04-26T18:32:38.685Z,17.30
2023-04-26T18:35:24.432Z,17.30
2023-04-26T18:38:09.979Z,17.30
2023-04-26T18:40:55.565Z,17.20
2023-04-26T18:43:41.585Z,17.20
2023-04-26T18:46:27.121Z,17.20
2023-04-26T18:49:12.769Z,17.20
2023-04-26T18:51:58.494Z,17.20
2023-04-26T18:54:44.189Z,17.20
2023-04-26T18:57:29.707Z,17.10
2023-04-26T19:00:16.154Z,17.10
2023-04-26T19:03:01.964Z,17.10
2023-04-26T19:05:47.594Z,17.10
2023-04-26T19:08:33.198Z,17.10
2023-04-26T19:11:18.890Z,15.10
2023-04-26T19:14:04.688Z,17.10
2023-04-26T19:16:50.334Z,17.10
2023-04-26T19:19:36.619Z,17.10
2023-04-26T19:22:21.811Z,17.10
2023-04-26T19:25:07.960Z,17.00
2023-04-26T19:27:53.899Z,17.00
2023-04-26T19:30:39.787Z,17.00
2023-04-26T19:33:25.739Z,17.00
2023-04-26T19:36:11.202Z,17.00
2023-04-26T19:38:56.839Z,17.00
2023-04-26T19:41:42.558Z,17.00
2023-04-26T19:44:28.142Z,16.90
2023-04-26T19:47:13.907Z,16.90
2023-04-26T19:49:59.556Z,16.90
2023-04-26T19:52:45.531Z,16.90
2023-04-26T19:55:31.337Z,16.90
2023-04-26T19:58:17.119Z,16.90
2023-04-26T20:01:03.584Z,16.90
2023-04-26T20:03:49.393Z,16.90
2023-04-26T20:06:34.964Z,16.90
2023-04-26T20:09:20.967Z,16.90
2023-04-26T20:12:07.114Z,16.80
2023-04-26T20:14:53.278Z,16.80
2023-04-26T20:17:39.060Z,16.80
2023-04-26T20:20:24.464Z,16.80
2023-04-26T20:23:10.109Z,16.80
2023-04-26T20:25:55.794Z,16.80
2023-04-26T20:28:41.471Z,16.80
2023-04-26T20:31:27.533Z,16.80
2023-04-26T20:34:13.028Z,16.80
2023-04-26T20:36:59.241Z,16.80
2023-04-26T20:39:44.976Z,16.80
2023-04-26T20:42:30.426Z,16.80
2023-04-26T20:45:16.684Z,16.80
2023-04-26T20:48:02.392Z,16.80
2023-04-26T20:50:48.165Z,16.70
2023-04-26T20:53:33.737Z,16.70
2023-04-26T20:56:19.369Z,16.70
2023-04-26T20:59:05.017Z,16.80
2023-04-26T21:01:50.832Z,16.70
2023-04-26T21:04:38.657Z,16.70
2023-04-26T21:07:24.405Z,16.70
2023-04-26T21:10:10.133Z,16.70
2023-04-26T21:12:55.723Z,16.70
2023-04-26T21:15:41.218Z,16.70
2023-04-26T21:18:26.762Z,16.70
2023-04-26T21:21:12.638Z,16.70
2023-04-26T21:23:57.933Z,16.70
2023-04-26T21:26:43.751Z,16.70
2023-04-26T21:29:29.725Z,16.60
2023-04-26T21:32:15.561Z,16.60
2023-04-26T21:35:01.116Z,16.60
2023-04-26T21:37:46.765Z,16.60
2023-04-26T21:40:32.514Z,16.60
2023-04-26T21:43:19.912Z,16.50
2023-04-26T21:46:05.305Z,16.60
2023-04-26T21:48:50.871Z,16.60
2023-04-26T21:51:36.591Z,16.60
2023-04-26T21:54:22.547Z,16.50
2023-04-26T21:57:09.362Z,16.60
2023-04-26T21:59:54.920Z,16.60
2023-04-26T22:02:41.058Z,16.50
2023-04-26T22:05:26.886Z,16.30
2023-04-26T22:08:12.258Z,15.20
2023-04-26T22:10:58.264Z,14.50
2023-04-26T22:13:43.613Z,13.90
2023-04-26T22:16:29.045Z,13.50
2023-04-26T22:19:14.657Z,13.20
2023-04-26T22:22:00.461Z,12.90
2023-04-26T22:24:45.886Z,12.70
2023-04-26T22:27:32.270Z,12.50
2023-04-26T22:30:25.569Z,12.30
2023-04-26T22:33:12.384Z,12.20
2023-04-26T22:35:59.298Z,12.10
2023-04-26T22:38:44.659Z,12.00
2023-04-26T22:41:30.580Z,11.90
2023-04-26T22:44:16.042Z,11.80
2023-04-26T22:47:01.671Z,11.70
2023-04-26T22:49:47.102Z,11.40
2023-04-26T22:52:33.307Z,11.40
2023-04-26T22:55:19.186Z,11.10
2023-04-26T22:58:04.992Z,11.20
2023-04-26T23:00:50.580Z,11.10
2023-04-26T23:03:36.957Z,11.10
2023-04-26T23:06:22.567Z,10.90
2023-04-26T23:09:08.706Z,10.90
2023-04-26T23:11:54.444Z,10.70
2023-04-26T23:14:40.063Z,10.60
2023-04-26T23:17:26.666Z,10.40
2023-04-26T23:20:12.703Z,10.40
2023-04-26T23:22:57.917Z,10.40
2023-04-26T23:25:43.508Z,10.30
2023-04-26T23:28:29.187Z,10.30
2023-04-26T23:31:14.720Z,10.20
2023-04-26T23:34:00.580Z,10.00
2023-04-26T23:36:45.939Z,10.20
2023-04-26T23:39:31.727Z,10.20
2023-04-26T23:42:17.229Z,10.40
2023-04-26T23:45:03.212Z,10.20
2023-04-26T23:47:48.982Z,10.10
2023-04-26T23:50:34.465Z,10.00
2023-04-26T23:53:20.194Z,9.90
2023-04-26T23:56:06.661Z,10.00
2023-04-26T23:58:51.982Z,9.90
